createdAt,value
2022-08-06T00:00:18.466Z,27.00
2022-08-06T00:02:54.793Z,27.00
2022-08-06T00:05:29.710Z,27.10
2022-08-06T00:07:58.416Z,27.10
2022-08-06T00:10:29.801Z,27.10
2022-08-06T00:13:00.310Z,27.10
2022-08-06T00:16:05.918Z,27.00
2022-08-06T00:18:16.662Z,27.00
2022-08-06T00:20:46.475Z,27.00
2022-08-06T00:23:17.702Z,27.00
2022-08-06T00:25:52.831Z,27.00
2022-08-06T00:28:30.585Z,27.00
2022-08-06T00:31:06.305Z,27.00
2022-08-06T00:33:44.224Z,26.90
2022-08-06T00:36:28.552Z,26.90
2022-08-06T00:39:00.264Z,26.80
2022-08-06T00:41:39.557Z,26.80
2022-08-06T00:44:09.186Z,26.80
2022-08-06T00:46:39.811Z,26.70
2022-08-06T00:49:11.488Z,26.70
2022-08-06T00:51:51.509Z,26.60
2022-08-06T00:54:28.977Z,26.60
2022-08-06T00:57:06.948Z,26.60
2022-08-06T00:59:37.694Z,26.50
2022-08-06T01:02:09.905Z,26.50
2022-08-06T01:04:37.629Z,26.40
2022-08-06T01:07:05.586Z,26.40
2022-08-06T01:09:46.083Z,26.30
2022-08-06T01:12:32.038Z,26.20
2022-08-06T01:15:16.187Z,26.10
2022-08-06T01:17:49.882Z,26.10
2022-08-06T01:21:57.611Z,26.00
2022-08-06T01:24:34.350Z,26.00
2022-08-06T01:27:36.900Z,26.00
2022-08-06T01:30:27.328Z,25.90
2022-08-06T01:33:10.283Z,25.80
2022-08-06T01:35:55.377Z,25.80
2022-08-06T01:38:25.861Z,25.70
2022-08-06T01:40:54.217Z,25.60
2022-08-06T01:44:05.379Z,25.60
2022-08-06T01:46:13.640Z,25.50
2022-08-06T01:48:45.618Z,25.40
2022-08-06T01:52:11.045Z,25.40
2022-08-06T01:54:06.270Z,25.30
2022-08-06T01:56:57.292Z,25.30
2022-08-06T01:59:37.015Z,25.40
2022-08-06T02:02:07.405Z,25.40
2022-08-06T02:04:40.852Z,25.40
2022-08-06T02:08:34.375Z,25.40
2022-08-06T02:10:05.761Z,25.40
2022-08-06T02:12:34.098Z,25.40
2022-08-06T02:15:13.475Z,25.50
2022-08-06T02:18:03.466Z,25.50
2022-08-06T02:20:42.306Z,25.50
2022-08-06T02:23:25.229Z,25.50
2022-08-06T02:26:01.582Z,25.50
2022-08-06T02:28:30.480Z,25.60
2022-08-06T02:30:59.333Z,25.60
2022-08-06T02:34:01.195Z,25.60
2022-08-06T02:36:28.628Z,25.60
2022-08-06T02:39:30.131Z,25.60
2022-08-06T02:42:29.118Z,25.60
2022-08-06T02:45:03.631Z,25.60
2022-08-06T02:48:01.775Z,25.60
2022-08-06T02:50:36.388Z,25.50
2022-08-06T02:53:23.921Z,25.50
2022-08-06T02:56:02.125Z,25.50
2022-08-06T02:58:57.824Z,25.50
2022-08-06T03:01:39.037Z,25.50
2022-08-06T03:04:11.608Z,25.40
2022-08-06T03:06:42.108Z,25.50
2022-08-06T03:09:15.046Z,25.40
2022-08-06T03:11:47.409Z,25.40
2022-08-06T03:14:53.781Z,25.40
2022-08-06T03:17:07.288Z,25.40
2022-08-06T03:19:55.006Z,25.40
2022-08-06T03:22:36.028Z,25.40
2022-08-06T03:25:13.972Z,25.40
2022-08-06T03:27:44.712Z,25.40
2022-08-06T03:30:32.483Z,25.30
2022-08-06T03:33:29.926Z,25.40
2022-08-06T03:36:00.765Z,25.30
2022-08-06T03:38:32.029Z,25.30
2022-08-06T03:41:01.919Z,25.30
2022-08-06T03:43:56.580Z,25.20
2022-08-06T03:46:36.780Z,25.20
2022-08-06T03:49:07.469Z,25.10
2022-08-06T03:51:52.655Z,25.10
2022-08-06T03:54:30.508Z,25.10
2022-08-06T03:57:08.068Z,25.00
2022-08-06T03:59:58.381Z,25.00
2022-08-06T04:02:45.092Z,24.90
2022-08-06T04:05:23.831Z,24.90
2022-08-06T04:08:05.439Z,24.90
2022-08-06T04:10:39.783Z,24.90
2022-08-06T04:14:03.081Z,24.90
2022-08-06T04:16:02.116Z,24.90
2022-08-06T04:18:33.518Z,24.90
2022-08-06T04:21:20.822Z,24.90
2022-08-06T04:24:05.457Z,24.80
2022-08-06T04:26:39.356Z,24.90
2022-08-06T04:29:12.669Z,24.80
2022-08-06T04:32:19.769Z,24.80
2022-08-06T04:34:37.448Z,24.80
2022-08-06T04:37:22.945Z,24.90
2022-08-06T04:39:50.963Z,24.90
2022-08-06T04:42:19.180Z,24.90
2022-08-06T04:45:00.002Z,25.00
2022-08-06T04:47:41.451Z,25.00
2022-08-06T04:50:17.902Z,25.10
2022-08-06T04:52:50.890Z,25.20
2022-08-06T04:55:25.154Z,25.20
2022-08-06T04:58:08.194Z,25.30
2022-08-06T05:01:02.900Z,25.40
2022-08-06T05:04:05.524Z,25.50
2022-08-06T05:06:47.458Z,25.60
2022-08-06T05:09:29.212Z,25.70
2022-08-06T05:12:22.032Z,25.80
2022-08-06T05:15:02.145Z,25.90
2022-08-06T05:17:35.436Z,26.00
2022-08-06T05:20:12.981Z,26.10
2022-08-06T05:23:01.205Z,26.20
2022-08-06T05:25:35.981Z,26.30
2022-08-06T05:28:10.959Z,26.40
2022-08-06T05:30:48.338Z,26.60
2022-08-06T05:33:30.739Z,26.80
2022-08-06T05:36:02.519Z,27.10
2022-08-06T05:38:36.042Z,27.30
2022-08-06T05:41:11.680Z,27.40
2022-08-06T05:43:57.481Z,27.60
2022-08-06T05:46:31.304Z,27.70
2022-08-06T05:49:55.899Z,27.90
2022-08-06T05:52:24.650Z,28.00
2022-08-06T05:55:11.342Z,28.20
2022-08-06T05:57:45.784Z,28.30
2022-08-06T06:00:31.794Z,28.50
2022-08-06T06:03:23.955Z,28.60
2022-08-06T06:06:14.260Z,28.70
2022-08-06T06:08:57.580Z,28.90
2022-08-06T06:11:54.847Z,29.10
2022-08-06T06:14:36.271Z,29.20
2022-08-06T06:17:26.902Z,29.40
2022-08-06T06:20:08.637Z,29.60
2022-08-06T06:22:51.141Z,29.70
2022-08-06T06:25:41.711Z,29.90
2022-08-06T06:28:31.122Z,30.00
2022-08-06T06:32:04.730Z,30.00
2022-08-06T06:34:16.911Z,30.10
2022-08-06T06:37:05.985Z,30.30
2022-08-06T06:39:50.052Z,30.40
2022-08-06T06:42:47.263Z,30.60
2022-08-06T06:46:07.754Z,30.70
2022-08-06T06:48:43.761Z,30.80
2022-08-06T06:51:56.749Z,31.00
2022-08-06T06:54:37.877Z,31.10
2022-08-06T06:57:08.955Z,31.30
2022-08-06T07:00:04.020Z,31.50
2022-08-06T07:02:31.654Z,31.60
2022-08-06T07:05:05.719Z,31.80
2022-08-06T07:07:39.118Z,31.90
2022-08-06T07:10:11.612Z,32.10
2022-08-06T07:12:41.110Z,32.20
2022-08-06T07:15:16.888Z,32.40
2022-08-06T07:17:49.165Z,32.40
2022-08-06T07:20:35.741Z,32.50
2022-08-06T07:24:08.130Z,32.50
2022-08-06T07:25:56.195Z,32.50
2022-08-06T07:28:28.791Z,32.50
2022-08-06T07:31:03.996Z,32.70
2022-08-06T07:34:01.271Z,32.70
2022-08-06T07:36:26.746Z,32.90
2022-08-06T07:38:59.653Z,33.00
2022-08-06T07:41:31.927Z,33.10
2022-08-06T07:44:17.815Z,33.20
2022-08-06T07:46:52.268Z,33.20
2022-08-06T07:49:31.688Z,33.20
2022-08-06T07:52:23.670Z,33.20
2022-08-06T07:54:56.281Z,33.30
2022-08-06T07:57:25.678Z,33.40
2022-08-06T07:59:55.716Z,33.60
2022-08-06T08:02:29.560Z,33.80
2022-08-06T08:05:17.486Z,34.00
2022-08-06T08:07:53.926Z,34.10
2022-08-06T08:10:28.660Z,34.30
2022-08-06T08:12:58.076Z,34.40
2022-08-06T08:15:34.629Z,34.30
2022-08-06T08:18:10.824Z,34.40
2022-08-06T08:20:40.836Z,34.50
2022-08-06T08:23:33.197Z,34.60
2022-08-06T08:26:03.668Z,34.70
2022-08-06T08:28:31.732Z,34.70
2022-08-06T08:31:11.096Z,34.90
2022-08-06T08:33:48.069Z,35.10
2022-08-06T08:36:15.205Z,35.20
2022-08-06T08:38:43.780Z,35.40
2022-08-06T08:41:22.268Z,35.60
2022-08-06T08:44:00.034Z,35.80
2022-08-06T08:46:31.818Z,35.90
2022-08-06T08:49:05.002Z,36.00
2022-08-06T08:51:42.973Z,36.10
2022-08-06T08:54:17.196Z,36.20
2022-08-06T08:57:07.246Z,36.10
2022-08-06T09:00:00.038Z,36.20
2022-08-06T09:02:25.258Z,36.20
2022-08-06T09:04:54.744Z,36.30
2022-08-06T09:07:35.617Z,36.40
2022-08-06T09:10:12.026Z,36.60
2022-08-06T09:12:45.621Z,36.80
2022-08-06T09:15:17.355Z,36.90
2022-08-06T09:18:25.701Z,37.00
2022-08-06T09:20:35.585Z,37.10
2022-08-06T09:23:07.437Z,37.20
2022-08-06T09:25:51.458Z,37.30
2022-08-06T09:28:37.725Z,37.50
2022-08-06T09:31:10.440Z,37.60
2022-08-06T09:34:30.949Z,37.70
2022-08-06T09:36:56.756Z,37.70
2022-08-06T09:39:59.844Z,37.80
2022-08-06T09:42:51.418Z,37.80
2022-08-06T09:45:42.336Z,37.70
2022-08-06T09:48:17.524Z,37.70
2022-08-06T09:50:51.091Z,37.80
2022-08-06T09:53:21.697Z,37.90
2022-08-06T09:55:53.258Z,38.00
2022-08-06T09:58:37.432Z,38.20
2022-08-06T10:01:22.868Z,38.30
2022-08-06T10:04:02.933Z,38.40
2022-08-06T10:06:33.680Z,38.50
2022-08-06T10:09:21.276Z,38.60
2022-08-06T10:11:57.524Z,38.50
2022-08-06T10:14:26.155Z,38.50
2022-08-06T10:17:17.057Z,38.50
2022-08-06T10:19:52.682Z,38.50
2022-08-06T10:22:27.152Z,38.50
2022-08-06T10:24:58.334Z,38.50
2022-08-06T10:27:36.286Z,38.50
2022-08-06T10:30:09.472Z,38.50
2022-08-06T10:32:54.404Z,38.40
2022-08-06T10:35:29.898Z,38.40
2022-08-06T10:38:03.843Z,38.40
2022-08-06T10:40:32.752Z,38.40
2022-08-06T10:43:08.208Z,38.50
2022-08-06T10:45:40.782Z,38.50
2022-08-06T10:48:59.208Z,38.60
2022-08-06T10:51:07.694Z,38.60
2022-08-06T10:54:01.295Z,38.70
2022-08-06T10:56:31.931Z,38.80
2022-08-06T10:59:06.793Z,38.90
2022-08-06T11:02:17.317Z,39.00
2022-08-06T11:04:50.465Z,39.10
2022-08-06T11:08:09.002Z,39.20
2022-08-06T11:10:41.884Z,39.30
2022-08-06T11:13:14.745Z,39.30
2022-08-06T11:15:45.009Z,39.30
2022-08-06T11:18:16.304Z,39.30
2022-08-06T11:20:53.862Z,39.40
2022-08-06T11:23:52.103Z,39.50
2022-08-06T11:26:09.051Z,39.50
2022-08-06T11:28:36.122Z,39.40
2022-08-06T11:31:12.228Z,39.30
2022-08-06T11:33:48.455Z,39.40
2022-08-06T11:36:29.236Z,39.30
2022-08-06T11:39:00.141Z,39.40
2022-08-06T11:41:54.454Z,39.30
2022-08-06T11:44:30.062Z,39.40
2022-08-06T11:47:08.113Z,39.50
2022-08-06T11:49:43.745Z,39.50
2022-08-06T11:52:37.752Z,39.40
2022-08-06T11:55:12.711Z,39.40
2022-08-06T11:58:23.377Z,39.40
2022-08-06T12:01:03.534Z,39.50
2022-08-06T12:03:51.999Z,39.60
2022-08-06T12:06:29.298Z,39.60
2022-08-06T12:09:13.163Z,39.60
2022-08-06T12:11:45.244Z,39.70
2022-08-06T12:14:47.190Z,39.80
2022-08-06T12:17:20.886Z,39.90
2022-08-06T13:11:07.337Z,38.50
2022-08-06T13:14:12.482Z,39.50
2022-08-06T13:17:41.802Z,39.60
2022-08-06T13:21:56.384Z,39.60
2022-08-06T13:25:01.636Z,39.60
2022-08-06T13:27:55.845Z,39.60
2022-08-06T13:30:38.263Z,39.50
2022-08-06T13:34:04.393Z,39.50
2022-08-06T13:36:34.518Z,39.50
2022-08-06T13:39:34.472Z,39.60
2022-08-06T13:42:16.568Z,39.60
2022-08-06T13:44:48.624Z,39.60
2022-08-06T13:47:56.022Z,39.60
2022-08-06T13:50:19.390Z,39.60
2022-08-06T13:53:00.991Z,39.60
2022-08-06T13:56:02.539Z,39.60
2022-08-06T13:58:23.190Z,39.60
2022-08-06T14:00:53.712Z,39.60
2022-08-06T14:03:47.121Z,39.60
2022-08-06T14:06:14.700Z,39.60
2022-08-06T14:08:47.740Z,39.60
2022-08-06T14:11:21.297Z,39.60
2022-08-06T14:13:52.715Z,39.50
2022-08-06T14:16:28.205Z,39.50
2022-08-06T14:19:03.358Z,39.60
2022-08-06T14:21:34.474Z,39.50
2022-08-06T14:24:08.011Z,39.50
2022-08-06T14:26:44.354Z,39.60
2022-08-06T14:30:25.953Z,39.60
2022-08-06T14:32:12.590Z,39.60
2022-08-06T14:34:45.079Z,39.50
2022-08-06T14:37:13.878Z,39.30
2022-08-06T14:39:57.829Z,39.30
2022-08-06T14:42:49.730Z,39.10
2022-08-06T14:45:21.778Z,39.10
2022-08-06T14:48:00.927Z,38.90
2022-08-06T14:50:38.198Z,38.80
2022-08-06T14:53:16.220Z,38.70
2022-08-06T14:56:06.799Z,38.70
2022-08-06T14:58:35.985Z,38.70
2022-08-06T15:01:15.455Z,38.80
2022-08-06T15:03:46.404Z,38.80
2022-08-06T15:06:19.917Z,38.60
2022-08-06T15:09:15.130Z,38.50
2022-08-06T15:11:59.330Z,38.30
2022-08-06T15:14:33.768Z,38.10
2022-08-06T15:17:49.333Z,38.00
2022-08-06T15:20:09.122Z,37.90
2022-08-06T15:22:39.598Z,37.70
2022-08-06T15:25:22.013Z,37.60
2022-08-06T15:28:00.083Z,37.50
2022-08-06T15:30:33.991Z,37.40
2022-08-06T15:33:11.873Z,37.30
2022-08-06T15:35:57.010Z,37.20
2022-08-06T15:38:34.822Z,37.10
2022-08-06T15:41:05.788Z,37.00
2022-08-06T15:43:44.408Z,36.70
2022-08-06T15:46:28.691Z,36.40
2022-08-06T15:48:59.603Z,36.00
2022-08-06T15:51:30.984Z,35.70
2022-08-06T15:54:00.415Z,35.20
2022-08-06T15:56:38.352Z,34.90
2022-08-06T15:59:20.191Z,34.60
2022-08-06T16:01:52.545Z,34.30
2022-08-06T16:04:32.451Z,34.00
2022-08-06T16:07:13.817Z,33.70
2022-08-06T16:10:03.002Z,33.40
2022-08-06T16:12:31.585Z,32.90
2022-08-06T16:15:02.135Z,32.30
2022-08-06T16:17:53.155Z,31.60
2022-08-06T16:20:23.067Z,30.90
2022-08-06T16:23:06.954Z,30.30
2022-08-06T16:26:15.341Z,29.80
2022-08-06T16:28:51.155Z,29.40
2022-08-06T16:31:21.379Z,29.10
2022-08-06T16:33:53.815Z,29.00
2022-08-06T16:36:32.708Z,28.90
2022-08-06T16:39:12.447Z,28.90
2022-08-06T16:41:59.218Z,28.80
2022-08-06T16:44:35.240Z,28.70
2022-08-06T16:47:13.938Z,28.30
2022-08-06T16:50:19.282Z,27.90
2022-08-06T16:52:42.925Z,27.70
2022-08-06T16:55:31.890Z,27.60
2022-08-06T16:58:16.741Z,27.50
2022-08-06T17:04:25.822Z,27.60
2022-08-06T17:07:07.426Z,27.70
2022-08-06T17:09:48.277Z,27.80
2022-08-06T17:12:26.599Z,28.00
2022-08-06T17:15:16.072Z,28.10
2022-08-06T17:17:53.985Z,28.30
2022-08-06T17:20:28.731Z,28.50
2022-08-06T17:23:00.481Z,28.70
2022-08-06T17:25:50.789Z,28.80
2022-08-06T17:28:25.872Z,29.00
2022-08-06T17:31:00.424Z,29.10
2022-08-06T17:33:40.493Z,29.10
2022-08-06T17:36:30.666Z,29.10
2022-08-06T17:39:11.738Z,29.20
2022-08-06T17:44:26.363Z,29.30
2022-08-06T17:46:55.146Z,29.40
2022-08-06T17:49:26.919Z,29.50
2022-08-06T17:52:02.825Z,29.60
2022-08-06T17:54:46.541Z,29.70
2022-08-06T17:58:07.270Z,29.80
2022-08-06T18:00:33.103Z,29.80
2022-08-06T18:03:05.279Z,29.80
2022-08-06T18:05:36.282Z,29.90
2022-08-06T18:08:15.288Z,29.90
2022-08-06T18:10:52.233Z,29.90
2022-08-06T18:13:21.927Z,29.90
2022-08-06T18:16:12.243Z,30.00
2022-08-06T18:18:42.845Z,30.00
2022-08-06T18:21:24.486Z,30.00
2022-08-06T18:23:56.104Z,30.00
2022-08-06T18:26:30.813Z,29.90
2022-08-06T18:29:05.956Z,29.90
2022-08-06T18:31:59.462Z,29.90
2022-08-06T18:34:29.454Z,29.80
2022-08-06T18:37:06.674Z,29.80
2022-08-06T18:40:19.166Z,29.70
2022-08-06T18:42:42.236Z,29.70
2022-08-06T18:45:10.132Z,29.70
2022-08-06T18:47:42.398Z,29.60
2022-08-06T18:50:13.087Z,29.60
2022-08-06T18:52:43.048Z,29.60
2022-08-06T18:55:17.547Z,29.60
2022-08-06T18:58:12.936Z,29.60
2022-08-06T19:00:51.525Z,29.60
2022-08-06T19:03:43.510Z,29.60
2022-08-06T19:06:15.014Z,29.60
2022-08-06T19:08:42.126Z,29.60
2022-08-06T19:11:09.922Z,29.70
2022-08-06T19:14:16.925Z,29.60
2022-08-06T19:16:30.266Z,29.60
2022-08-06T19:18:58.365Z,29.60
2022-08-06T19:21:35.007Z,29.50
2022-08-06T19:24:06.925Z,29.50
2022-08-06T19:26:36.252Z,29.40
2022-08-06T19:29:05.393Z,29.40
2022-08-06T19:31:42.452Z,29.30
2022-08-06T19:34:16.156Z,29.30
2022-08-06T19:36:45.751Z,29.20
2022-08-06T19:39:53.197Z,29.10
2022-08-06T19:42:15.591Z,29.00
2022-08-06T19:45:04.863Z,28.90
2022-08-06T19:47:49.113Z,28.80
2022-08-06T19:50:19.423Z,28.70
2022-08-06T19:52:48.950Z,28.70
2022-08-06T19:56:07.578Z,28.60
2022-08-06T19:58:36.993Z,28.60
2022-08-06T20:02:07.712Z,28.50
2022-08-06T20:04:38.888Z,28.40
2022-08-06T20:07:23.697Z,28.30
2022-08-06T20:09:59.658Z,28.10
2022-08-06T20:12:38.727Z,27.90
2022-08-06T20:15:28.355Z,27.80
2022-08-06T20:18:02.618Z,27.60
2022-08-06T20:20:40.298Z,27.50
2022-08-06T20:23:17.115Z,27.30
2022-08-06T20:26:32.265Z,27.10
2022-08-06T20:29:09.654Z,27.00
2022-08-06T20:31:58.384Z,26.90
2022-08-06T20:38:14.278Z,26.80
2022-08-06T20:41:58.570Z,26.80
2022-08-06T20:44:23.512Z,26.80
2022-08-06T20:47:57.387Z,26.80
2022-08-06T20:50:58.355Z,26.90
2022-08-06T20:53:39.779Z,26.90
2022-08-06T20:56:22.433Z,26.90
2022-08-06T21:02:25.775Z,26.90
2022-08-06T21:05:15.411Z,26.80
2022-08-06T21:07:50.881Z,26.80
2022-08-06T21:10:30.214Z,26.80
2022-08-06T21:13:02.889Z,26.80
2022-08-06T21:15:53.904Z,26.80
2022-08-06T21:18:26.720Z,26.80
2022-08-06T21:20:56.345Z,26.80
2022-08-06T21:23:41.941Z,26.80
2022-08-06T21:26:16.115Z,26.80
2022-08-06T21:28:54.275Z,26.80
2022-08-06T21:31:27.303Z,26.80
2022-08-06T21:33:57.602Z,26.80
2022-08-06T21:36:28.895Z,26.80
2022-08-06T21:38:59.575Z,26.70
2022-08-06T21:41:49.800Z,26.70
2022-08-06T21:44:24.530Z,26.70
2022-08-06T21:46:58.686Z,26.70
2022-08-06T21:49:59.701Z,26.70
2022-08-06T21:52:28.424Z,26.70
2022-08-06T21:56:35.121Z,26.70
2022-08-06T21:58:02.700Z,26.70
2022-08-06T22:00:40.065Z,26.70
2022-08-06T22:03:13.739Z,26.60
2022-08-06T22:06:21.287Z,26.60
2022-08-06T22:08:54.285Z,26.60
2022-08-06T22:12:38.142Z,26.60
2022-08-06T22:14:16.517Z,26.60
2022-08-06T22:16:54.217Z,26.60
2022-08-06T22:19:27.636Z,26.50
2022-08-06T22:22:07.764Z,26.50
2022-08-06T22:24:36.393Z,26.50
2022-08-06T22:27:06.044Z,26.50
2022-08-06T22:29:53.483Z,26.50
2022-08-06T22:32:20.792Z,26.50
2022-08-06T22:34:51.891Z,26.50
2022-08-06T22:37:19.467Z,26.60
2022-08-06T22:40:08.745Z,26.60
2022-08-06T22:42:58.534Z,26.60
2022-08-06T22:46:01.399Z,26.50
2022-08-06T22:48:14.534Z,26.50
2022-08-06T22:50:51.816Z,26.50
2022-08-06T22:54:27.070Z,26.50
2022-08-06T22:56:19.749Z,26.40
2022-08-06T22:59:05.353Z,26.40
2022-08-06T23:02:06.083Z,26.40
2022-08-06T23:04:29.282Z,26.40
2022-08-06T23:07:00.219Z,26.40
2022-08-06T23:09:32.585Z,26.40
2022-08-06T23:12:01.226Z,26.40
2022-08-06T23:14:31.983Z,26.40
2022-08-06T23:17:01.117Z,26.30
2022-08-06T23:19:35.756Z,26.30
2022-08-06T23:22:24.933Z,26.20
2022-08-06T23:25:03.845Z,26.00
2022-08-06T23:27:46.829Z,26.00
2022-08-06T23:30:20.171Z,26.00
2022-08-06T23:32:54.392Z,25.90
2022-08-06T23:35:35.199Z,25.90
2022-08-06T23:38:31.626Z,25.90
2022-08-06T23:40:55.965Z,25.90
2022-08-06T23:43:26.890Z,25.80
2022-08-06T23:46:04.948Z,25.80
2022-08-06T23:48:32.958Z,25.80
2022-08-06T23:51:04.980Z,25.80
2022-08-06T23:54:08.357Z,25.80
2022-08-06T23:56:26.669Z,25.80
2022-08-06T23:59:01.455Z,25.80
